Calumet, Michigan
Current Conditions -  °F | °C
As of 10:53 AM on Wednesday 28 Jan 2015 (Local Time) from KCMX Reporting Station
Overcast Overcast  
Wind Chill: 16°   Ceiling: 6500
Heat Index: 26°   Visibility: 10mi
Dew Point: 20°   Wind: 12mph
Humidity: 78%   Direction: 140°SE
Pressure: 30.06"   Gusts: NA
Location:  47.25°N, 88.45°W
Report Text: KCMX 281553Z AUTO 14010KT 10SM OVC065 M03/M07 A3006 RMK AO2 SLP197 T10331067
Loading
Personal Weather Stations






























Interactive Weather Map New forecast layout! Learn more

10-Day Weather Forecast

Advertisements
Track Severe Weather on mobile